Accueil
METAR-TAF:

METAR-TAF

Aéroports :

Wanaham

Lifou, Nouvelle-Calédonie

latitude: 20-46S, longitude: 167-14E, altitude: 28 m

METAR: absent

Heure: 09:39 (22:39 UTC)

Prévision

Le bulletin a été fait il y a 5 heures et 39 minutes, à 17:00 UTC
Prévision valable du 23 à 18 UTC au 24 à 18 UTC
Vent 10 kt de est/sud-est
Visibilité 10 km ou plus
Nuages épars à une hauteur de 2000 ft
Nuages fragmentés à une hauteur de 3000 ft
Probabilité 40% :
Temporairement
du 23 à 18 UTC au 23 à 24 UTC
Visibilité: 4000 m
Nuages fragmentés à une hauteur de 1200 ft
Quelques nuages à une hauteur de 2500 ft, Cumulonimbus.
averses de pluie

TAF: NWWL 231700Z 2318/2418 11010KT 9999 SCT020 BKN030 PROB40 TEMPO 2318/2324 4000 SHRA BKN012 FEW025CB

Observations et prévisions météorologiques de plus de 4000 aéroports (messages METAR et TAF).

Les stations disponibles sont représentées par des disques jaunes et rouges sur la carte.

Passer la souris dessus pour voir le nom de la station.

Cliquer dessus pour voir les observations et prévisions météorologiques.

Pour changer de carte: cliquez sur les boutons verts avec une croix noire pour zoomer, sur le bouton vert avec un tiret pour effectuer un zoom arrière, ou sur les flèches vertes pour les cartes adjacentes.


METAR-TAF: